Time;durP1;ratioP1;P1;durP2;ratioP2;P2;SDS_P1;SDS_P2;PMS_P1;PMS_P2;Temp;Humidity;BMP_temperature;BMP_pressure;BME280_temperature;BME280_humidity;BME280_pressure;Samples;Min_cycle;Max_cycle;Signal;HPM_P1;HPM_P2
2022/03/04 00:01:00;;;;;;;29.92;12.70;;;;;;;-1.53;54.13;98744.81;5052247;28;20052;-61
2022/03/04 00:03:47;;;;;;;32.38;13.73;;;;;;;-1.61;54.26;98746.69;5052255;28;20049;-60
2022/03/04 00:06:32;;;;;;;31.30;14.23;;;;;;;-1.62;54.30;98747.56;5050991;28;20159;-58
2022/03/04 00:09:19;;;;;;;32.78;13.45;;;;;;;-1.60;54.44;98745.81;5051659;28;20059;-59
2022/03/04 00:12:07;;;;;;;32.78;13.32;;;;;;;-1.49;54.26;98745.63;5037045;28;20057;-60
2022/03/04 00:14:52;;;;;;;33.72;13.35;;;;;;;-1.49;54.18;98743.91;5051480;28;20063;-60
2022/03/04 00:17:38;;;;;;;27.75;13.02;;;;;;;-1.61;54.47;98744.13;5050882;28;20400;-61
2022/03/04 00:20:24;;;;;;;31.23;13.45;;;;;;;-1.81;55.16;98753.03;5052383;28;20053;-60
2022/03/04 00:23:10;;;;;;;30.45;12.85;;;;;;;-1.64;54.89;98747.59;5052646;28;20836;-61
2022/03/04 00:25:56;;;;;;;34.30;14.15;;;;;;;-1.79;55.17;98745.28;5052462;28;20056;-61
2022/03/04 00:28:41;;;;;;;29.35;13.93;;;;;;;-1.80;55.15;98748.75;5052380;28;20064;-61
2022/03/04 00:31:27;;;;;;;31.33;14.07;;;;;;;-1.83;55.27;98756.50;5037430;28;20053;-61
2022/03/04 00:34:12;;;;;;;33.90;13.82;;;;;;;-1.86;55.55;98744.59;5037434;28;20057;-61
2022/03/04 00:36:58;;;;;;;34.80;12.93;;;;;;;-1.89;55.60;98742.03;5052382;28;20079;-61
2022/03/04 00:39:44;;;;;;;33.72;13.80;;;;;;;-1.92;55.44;98748.09;5051953;28;20045;-61
2022/03/04 00:42:30;;;;;;;33.63;14.43;;;;;;;-2.03;55.78;98747.44;5052181;28;20508;-60
2022/03/04 00:45:15;;;;;;;30.80;13.18;;;;;;;-2.04;55.73;98744.00;5051256;28;20083;-61
2022/03/04 00:48:02;;;;;;;29.88;13.95;;;;;;;-1.92;55.43;98739.53;5069615;28;20407;-61
2022/03/04 00:50:47;;;;;;;28.88;12.52;;;;;;;-1.83;55.07;98743.66;5072538;28;20045;-61
2022/03/04 00:53:33;;;;;;;26.30;11.93;;;;;;;-1.93;55.45;98743.84;5071320;28;20514;-62
2022/03/04 00:56:19;;;;;;;27.27;12.70;;;;;;;-2.00;55.67;98732.84;5072740;28;20060;-62
2022/03/04 00:59:04;;;;;;;27.35;12.27;;;;;;;-1.93;55.45;98728.44;5072464;28;20049;-61
2022/03/04 01:01:50;;;;;;;32.35;13.73;;;;;;;-1.82;55.15;98727.38;5072153;28;20045;-61
2022/03/04 01:04:36;;;;;;;31.58;14.13;;;;;;;-2.02;56.12;98728.56;5070881;28;20060;-61
2022/03/04 01:07:22;;;;;;;31.83;12.60;;;;;;;-2.06;56.15;98732.09;5072191;28;20056;-61
2022/03/04 01:10:07;;;;;;;33.42;13.35;;;;;;;-1.99;56.31;98729.38;5071039;28;20127;-62
2022/03/04 01:12:53;;;;;;;30.15;13.27;;;;;;;-1.76;55.40;98730.69;5071514;28;20047;-62
2022/03/04 01:15:39;;;;;;;26.80;12.18;;;;;;;-1.68;55.30;98725.38;5063288;28;20055;-62
2022/03/04 01:18:25;;;;;;;29.83;13.02;;;;;;;-1.67;55.51;98721.97;5072937;28;20052;-60
2022/03/04 01:21:11;;;;;;;38.55;14.90;;;;;;;-1.72;55.48;98716.06;5075821;28;20048;-61
2022/03/04 01:23:56;;;;;;;30.85;13.60;;;;;;;-1.93;56.05;98719.88;5071952;28;20053;-59
2022/03/04 01:26:42;;;;;;;32.30;13.43;;;;;;;-2.08;56.22;98721.00;5071909;28;20059;-61
2022/03/04 01:29:28;;;;;;;28.42;12.65;;;;;;;-2.05;56.24;98718.38;5075888;28;20404;-62
2022/03/04 01:32:13;;;;;;;30.95;13.18;;;;;;;-1.96;56.11;98717.38;5066575;28;20538;-61
2022/03/04 01:34:59;;;;;;;28.85;12.50;;;;;;;-1.85;55.34;98712.88;5076187;28;20053;-61
2022/03/04 01:37:45;;;;;;;33.78;14.77;;;;;;;-2.24;56.50;98711.81;5066159;28;20056;-61
2022/03/04 01:40:30;;;;;;;31.38;13.77;;;;;;;-2.26;56.69;98715.28;5056894;28;20052;-61
2022/03/04 01:43:16;;;;;;;30.35;13.45;;;;;;;-2.08;56.43;98715.84;5050374;28;20052;-61
2022/03/04 01:46:15;;;;;;;30.67;13.45;;;;;;;-2.03;56.51;98716.63;5059981;28;20072;-61
2022/03/04 01:49:00;;;;;;;30.08;14.65;;;;;;;-2.33;57.52;98711.16;5066192;28;20056;-60
2022/03/04 01:51:47;;;;;;;30.48;14.18;;;;;;;-2.32;57.77;98702.56;5074118;28;20059;-61
2022/03/04 01:54:32;;;;;;;31.52;13.63;;;;;;;-2.39;58.25;98717.22;5073456;28;20126;-61
2022/03/04 01:57:18;;;;;;;32.30;13.85;;;;;;;-2.50;59.07;98714.84;5075182;28;20491;-61
2022/03/04 02:00:08;;;;;;;34.10;14.95;;;;;;;-2.63;59.76;98709.06;5074758;28;20055;-60
2022/03/04 02:02:59;;;;;;;39.22;16.20;;;;;;;-2.68;60.56;98704.00;5075070;28;20407;-61
2022/03/04 02:05:45;;;;;;;37.08;15.93;;;;;;;-2.62;60.79;98709.03;5076314;28;20048;-61
2022/03/04 02:08:31;;;;;;;32.80;15.18;;;;;;;-2.76;61.45;98706.66;5078922;28;20060;-61
2022/03/04 02:11:16;;;;;;;31.70;13.98;;;;;;;-2.50;61.16;98707.13;5075451;28;20060;-60
2022/03/04 02:14:02;;;;;;;37.10;15.77;;;;;;;-2.52;61.10;98703.75;5081560;28;20049;-60
2022/03/04 02:16:53;;;;;;;36.97;14.60;;;;;;;-2.35;60.44;98706.88;5085598;28;20059;-61
2022/03/04 02:19:39;;;;;;;39.72;18.15;;;;;;;-2.79;61.78;98703.31;5078034;28;20063;-61
2022/03/04 02:22:25;;;;;;;38.05;16.15;;;;;;;-2.77;62.44;98712.66;5074394;28;20048;-60
2022/03/04 02:25:10;;;;;;;38.60;15.60;;;;;;;-2.77;62.47;98704.09;5065331;28;20048;-60
2022/03/04 02:27:56;;;;;;;36.67;16.52;;;;;;;-2.87;63.17;98696.56;5059384;28;20075;-62
2022/03/04 02:30:42;;;;;;;40.70;17.15;;;;;;;-2.94;63.66;98697.53;5080438;28;20079;-62
2022/03/04 02:33:28;;;;;;;41.95;18.33;;;;;;;-2.85;63.56;98705.09;5074263;28;20045;-61
2022/03/04 02:36:14;;;;;;;47.72;20.02;;;;;;;-3.18;65.61;98703.84;5074399;28;20056;-61
2022/03/04 02:39:00;;;;;;;52.47;21.27;;;;;;;-3.36;67.22;98701.50;5073578;28;20138;-60
2022/03/04 02:41:46;;;;;;;49.15;20.85;;;;;;;-3.28;67.69;98701.38;5074601;28;20056;-61
2022/03/04 02:44:31;;;;;;;52.97;22.25;;;;;;;-3.14;67.99;98700.38;5074269;28;20060;-61
2022/03/04 02:47:17;;;;;;;55.00;23.27;;;;;;;-2.93;67.83;98694.09;5072922;28;20052;-63
2022/03/04 02:50:03;;;;;;;57.78;24.60;;;;;;;-2.95;69.18;98700.13;5073834;28;20075;-61
2022/03/04 02:52:49;;;;;;;55.80;24.13;;;;;;;-3.04;71.07;98711.34;5064611;28;20463;-61
2022/03/04 02:55:35;;;;;;;60.95;24.13;;;;;;;-2.99;71.25;98712.13;5073699;28;20064;-60
2022/03/04 02:58:20;;;;;;;68.95;27.35;;;;;;;-3.08;72.30;98712.28;5073940;28;20412;-61
2022/03/04 03:01:07;;;;;;;66.10;25.25;;;;;;;-3.01;72.09;98719.00;5072833;28;20049;-61
2022/03/04 03:03:53;;;;;;;60.88;26.55;;;;;;;-2.97;71.18;98720.66;5072809;28;20554;-61
2022/03/04 03:06:38;;;;;;;64.78;24.63;;;;;;;-3.18;71.75;98729.47;5063356;28;20051;-62
2022/03/04 03:09:24;;;;;;;56.25;23.95;;;;;;;-3.07;71.52;98724.22;5085887;28;20060;-61
2022/03/04 03:12:10;;;;;;;63.08;26.42;;;;;;;-3.19;72.30;98727.78;5090322;28;20440;-61
2022/03/04 03:14:57;;;;;;;62.72;25.83;;;;;;;-3.13;71.31;98728.53;5077142;28;20060;-61
2022/03/04 03:17:43;;;;;;;55.97;24.50;;;;;;;-3.34;72.41;98735.66;5074166;28;20075;-61
2022/03/04 03:20:30;;;;;;;60.92;24.02;;;;;;;-3.08;71.75;98733.59;5073606;28;20053;-60
2022/03/04 03:23:15;;;;;;;59.40;24.20;;;;;;;-3.22;73.51;98733.78;5073471;28;20044;-60
2022/03/04 03:26:01;;;;;;;66.07;27.13;;;;;;;-3.44;75.40;98731.47;5058387;28;20059;-60
2022/03/04 03:28:46;;;;;;;74.97;29.60;;;;;;;-3.58;77.21;98731.66;5073345;28;20049;-61
2022/03/04 03:31:32;;;;;;;70.82;27.63;;;;;;;-3.45;76.94;98722.13;5072287;28;20476;-60
2022/03/04 03:34:18;;;;;;;76.80;28.90;;;;;;;-3.30;76.95;98738.16;5073263;28;20051;-61
2022/03/04 03:37:05;;;;;;;74.90;29.33;;;;;;;-3.32;77.20;98730.50;5073175;28;20052;-60
2022/03/04 03:39:51;;;;;;;81.28;29.55;;;;;;;-3.51;78.67;98732.44;5073230;28;20506;-60
2022/03/04 03:42:39;;;;;;;77.32;28.85;;;;;;;-3.38;78.74;98736.53;5057031;28;20044;-61
2022/03/04 03:45:25;;;;;;;83.47;30.35;;;;;;;-3.31;78.12;98742.44;5058933;28;20052;-60
2022/03/04 03:48:11;;;;;;;69.57;27.77;;;;;;;-3.14;77.56;98737.13;5054836;28;20060;-61
2022/03/04 03:50:56;;;;;;;80.85;26.52;;;;;;;-3.11;77.33;98738.78;5029973;28;20491;-60
2022/03/04 03:53:42;;;;;;;77.70;28.83;;;;;;;-3.41;78.95;98741.69;5052201;28;20376;-61
2022/03/04 03:56:27;;;;;;;76.68;30.70;;;;;;;-3.28;79.07;98737.25;5037372;28;20079;-61
2022/03/04 03:59:13;;;;;;;74.07;26.95;;;;;;;-3.37;80.61;98748.50;5051976;28;20060;-58
2022/03/04 04:01:59;;;;;;;85.13;29.02;;;;;;;-3.50;81.72;98745.22;5039617;28;20051;-61
2022/03/04 04:04:46;;;;;;;70.70;28.10;;;;;;;-3.44;81.68;98753.72;5056586;28;20130;-61
2022/03/04 04:07:31;;;;;;;79.07;29.92;;;;;;;-3.53;82.41;98749.53;5057733;28;20114;-61
2022/03/04 04:10:17;;;;;;;84.57;30.98;;;;;;;-3.71;83.69;98747.16;5072632;28;20063;-62
2022/03/04 04:13:03;;;;;;;73.88;28.60;;;;;;;-3.77;84.45;98747.22;5072859;28;20056;-60
2022/03/04 04:15:48;;;;;;;82.57;29.77;;;;;;;-3.74;84.13;98759.16;5072627;28;20048;-60
2022/03/04 04:18:35;;;;;;;80.32;28.02;;;;;;;-3.75;84.42;98760.00;5072462;28;20357;-61
2022/03/04 04:21:21;;;;;;;84.63;29.88;;;;;;;-3.83;85.04;98753.25;5063305;28;20056;-61
2022/03/04 04:24:07;;;;;;;63.85;25.67;;;;;;;-3.47;83.71;98764.84;5072297;28;20075;-61
2022/03/04 04:26:53;;;;;;;73.38;28.05;;;;;;;-3.36;82.33;98769.81;5072698;28;20437;-62
2022/03/04 04:29:38;;;;;;;81.35;29.08;;;;;;;-3.67;83.81;98772.75;5049382;28;20057;-61
2022/03/04 04:32:23;;;;;;;84.30;29.70;;;;;;;-3.91;85.47;98770.41;5072245;28;20423;-60
2022/03/04 04:35:09;;;;;;;86.18;30.52;;;;;;;-3.89;85.88;98772.94;5063133;28;20411;-60
2022/03/04 04:37:55;;;;;;;75.72;28.02;;;;;;;-3.72;85.12;98770.25;5072234;28;20055;-61
2022/03/04 04:40:41;;;;;;;76.13;30.08;;;;;;;-4.05;86.72;98777.34;5072032;28;20075;-61
2022/03/04 04:43:27;;;;;;;75.93;29.15;;;;;;;-4.20;88.26;98781.75;5062958;28;20048;-61
2022/03/04 04:46:13;;;;;;;75.43;28.15;;;;;;;-4.13;88.33;98788.50;5072210;28;20048;-61
2022/03/04 04:48:59;;;;;;;77.03;28.90;;;;;;;-3.79;86.74;98781.38;5071563;28;20064;-61
2022/03/04 04:51:44;;;;;;;80.97;28.90;;;;;;;-4.03;87.44;98783.31;5061306;28;20057;-61
2022/03/04 04:54:30;;;;;;;80.38;28.17;;;;;;;-4.33;88.96;98791.22;5070379;28;20048;-60
2022/03/04 04:57:16;;;;;;;81.72;29.23;;;;;;;-4.45;89.59;98785.34;5074079;28;20049;-60
2022/03/04 05:00:03;;;;;;;77.65;29.10;;;;;;;-4.59;90.38;98790.56;5064189;28;20475;-59
2022/03/04 05:02:49;;;;;;;72.82;27.83;;;;;;;-4.57;90.69;98791.38;5073578;28;20048;-61
2022/03/04 05:05:35;;;;;;;81.05;27.67;;;;;;;-4.52;90.15;98790.50;5066494;28;20056;-60
2022/03/04 05:08:21;;;;;;;74.05;27.88;;;;;;;-4.51;89.78;98784.53;5064060;28;20056;-62
2022/03/04 05:11:08;;;;;;;68.00;24.67;;;;;;;-4.47;90.06;98796.41;5076064;28;20059;-61
2022/03/04 05:13:53;;;;;;;76.13;26.95;;;;;;;-4.55;90.16;98795.66;5075999;28;20056;-61
2022/03/04 05:16:39;;;;;;;75.38;25.50;;;;;;;-4.58;90.57;98796.50;5075894;28;20052;-60
2022/03/04 05:19:24;;;;;;;75.85;27.58;;;;;;;-4.58;90.84;98801.63;5060398;28;20503;-62
2022/03/04 05:22:10;;;;;;;73.05;27.20;;;;;;;-4.66;91.18;98800.81;5075723;28;20055;-61
2022/03/04 05:24:56;;;;;;;77.75;25.95;;;;;;;-4.57;90.92;98793.09;5060716;28;20052;-63
2022/03/04 05:27:41;;;;;;;69.72;26.02;;;;;;;-4.56;91.36;98792.22;5075654;28;20048;-61
2022/03/04 05:30:27;;;;;;;74.15;26.65;;;;;;;-4.55;91.41;98805.88;5075900;28;20056;-58
2022/03/04 05:33:12;;;;;;;69.10;23.75;;;;;;;-4.35;90.45;98798.91;5061898;28;20421;-61
2022/03/04 05:35:59;;;;;;;68.57;24.33;;;;;;;-4.37;90.08;98803.19;5067090;28;20506;-61
2022/03/04 05:38:45;;;;;;;72.32;24.75;;;;;;;-4.31;90.00;98804.88;5061204;28;20049;-61
2022/03/04 05:41:31;;;;;;;69.18;25.13;;;;;;;-4.49;91.10;98801.53;5076303;28;20048;-62
2022/03/04 05:44:16;;;;;;;73.18;24.90;;;;;;;-4.53;91.32;98807.56;5077153;28;20071;-61
2022/03/04 05:47:02;;;;;;;66.93;22.23;;;;;;;-4.43;91.04;98813.47;5076070;28;20103;-60
2022/03/04 05:49:48;;;;;;;60.42;21.65;;;;;;;-4.23;90.42;98823.53;5060460;28;20047;-61
2022/03/04 05:52:33;;;;;;;65.07;21.80;;;;;;;-4.13;89.35;98816.66;5074134;28;20419;-62
2022/03/04 05:55:19;;;;;;;60.83;21.30;;;;;;;-4.12;89.36;98827.75;5072789;28;20056;-61
2022/03/04 05:58:05;;;;;;;54.47;21.15;;;;;;;-3.91;88.67;98834.41;5072511;28;20048;-60
2022/03/04 06:00:51;;;;;;;64.85;19.98;;;;;;;-3.39;85.95;98834.78;5057896;28;20111;-61
2022/03/04 06:03:36;;;;;;;52.83;19.30;;;;;;;-3.51;85.73;98840.88;5056028;28;20045;-62
2022/03/04 06:06:22;;;;;;;61.70;21.85;;;;;;;-3.43;85.21;98850.22;5053807;28;20048;-61
2022/03/04 06:09:07;;;;;;;55.97;19.98;;;;;;;-3.44;85.61;98849.34;5054568;28;20059;-61
2022/03/04 06:11:54;;;;;;;59.22;21.90;;;;;;;-3.39;84.87;98850.16;5059297;28;20087;-64
2022/03/04 06:14:39;;;;;;;62.28;21.60;;;;;;;-3.50;85.81;98857.09;5042879;28;20056;-59
2022/03/04 06:17:25;;;;;;;57.47;20.30;;;;;;;-3.62;86.43;98850.38;5054302;28;20052;-58
2022/03/04 06:20:11;;;;;;;57.15;21.80;;;;;;;-3.45;86.46;98847.66;5054169;28;20045;-62
2022/03/04 06:22:58;;;;;;;51.20;19.27;;;;;;;-3.29;85.11;98850.06;5053795;28;20056;-60
2022/03/04 06:25:44;;;;;;;57.97;19.63;;;;;;;-3.15;84.73;98855.06;5040185;28;20060;-59
2022/03/04 06:28:29;;;;;;;59.75;21.90;;;;;;;-3.08;84.29;98861.78;5054307;28;20071;-57
2022/03/04 06:31:15;;;;;;;55.65;20.40;;;;;;;-3.18;84.51;98868.72;5045244;28;20045;-58
2022/03/04 06:34:01;;;;;;;53.17;19.58;;;;;;;-3.20;84.79;98854.25;5054284;28;20052;-57
2022/03/04 06:36:46;;;;;;;52.58;19.85;;;;;;;-3.10;84.42;98869.50;5039597;28;20045;-59
2022/03/04 06:39:32;;;;;;;50.47;17.95;;;;;;;-2.63;82.93;98875.81;5039349;28;20048;-57
2022/03/04 06:42:17;;;;;;;50.47;17.85;;;;;;;-2.56;81.73;98871.44;5060493;28;20048;-57
2022/03/04 06:45:03;;;;;;;56.28;19.20;;;;;;;-2.69;82.33;98878.47;5054432;28;20499;-56
2022/03/04 06:47:49;;;;;;;53.83;17.88;;;;;;;-1.64;86.52;98885.50;5039368;28;20056;-54
2022/03/04 06:50:34;;;;;;;51.28;18.55;;;;;;;-2.01;80.69;98884.38;5064939;28;20060;-57
2022/03/04 06:53:20;;;;;;;54.22;19.40;;;;;;;-1.99;79.70;98885.19;5074115;28;20055;-57
2022/03/04 06:56:06;;;;;;;51.88;19.10;;;;;;;-1.95;78.94;98881.72;5070884;28;20067;-57
2022/03/04 06:58:52;;;;;;;42.80;16.45;;;;;;;-1.85;79.46;98879.84;5050286;28;20048;-58
2022/03/04 07:01:37;;;;;;;45.55;16.88;;;;;;;-1.83;78.64;98882.38;5056703;28;20051;-57
2022/03/04 07:04:24;;;;;;;43.35;16.67;;;;;;;-1.92;80.13;98894.50;5060696;28;20048;-57
2022/03/04 07:07:10;;;;;;;42.58;15.60;;;;;;;-2.01;79.54;98884.38;5051844;28;20056;-58
2022/03/04 07:09:55;;;;;;;48.40;17.98;;;;;;;-2.36;80.82;98899.41;5053405;28;20064;-59
2022/03/04 07:12:41;;;;;;;46.05;16.42;;;;;;;-2.35;81.22;98895.97;5038213;28;20401;-56
2022/03/04 07:15:27;;;;;;;47.47;17.33;;;;;;;-2.13;80.33;98893.94;5061315;28;20059;-58
2022/03/04 07:18:13;;;;;;;45.10;14.95;;;;;;;-2.06;80.48;98902.41;5072775;28;20048;-58
2022/03/04 07:20:59;;;;;;;41.17;15.95;;;;;;;-1.80;79.14;98903.75;5072481;28;20044;-59
2022/03/04 07:23:46;;;;;;;40.72;16.00;;;;;;;-1.92;79.75;98909.91;5058850;28;20063;-58
2022/03/04 07:26:32;;;;;;;41.60;15.45;;;;;;;-0.88;99.66;98902.16;5072783;28;20067;-58
2022/03/04 07:29:20;;;;;;;42.40;14.80;;;;;;;-0.11;98.23;98902.31;5069967;28;20048;-59
2022/03/04 07:32:06;;;;;;;39.65;15.43;;;;;;;-0.91;79.94;98894.50;5048316;28;20072;-56
2022/03/04 07:34:52;;;;;;;43.30;15.43;;;;;;;-1.44;78.81;98900.59;5066105;28;20507;-58
2022/03/04 07:37:39;;;;;;;38.50;14.10;;;;;;;-1.33;78.88;98902.13;5070019;28;20056;-58
2022/03/04 07:40:26;;;;;;;35.15;14.98;;;;;;;-1.33;78.95;98904.69;5042558;28;20075;-57
2022/03/04 07:43:12;;;;;;;42.90;15.68;;;;;;;-1.14;76.99;98897.47;5053072;28;20060;-59
2022/03/04 07:45:57;;;;;;;40.72;13.45;;;;;;;-0.93;76.67;98908.28;5052631;28;20041;-58
2022/03/04 07:48:43;;;;;;;41.28;13.93;;;;;;;-0.43;74.37;98907.28;5052712;28;20056;-59
2022/03/04 07:51:29;;;;;;;40.10;13.50;;;;;;;-0.36;73.39;98908.84;5039831;28;20401;-61
2022/03/04 07:54:18;;;;;;;34.10;12.13;;;;;;;-0.19;72.97;98917.91;5053948;28;20060;-62
2022/03/04 07:57:04;;;;;;;31.65;12.27;;;;;;;0.11;72.05;98918.94;5052360;28;20384;-59
2022/03/04 07:59:50;;;;;;;40.47;13.50;;;;;;;-0.13;71.82;98917.78;5053677;28;20064;-60
2022/03/04 08:02:38;;;;;;;39.03;14.07;;;;;;;-0.73;74.13;98925.06;5055048;28;20400;-62
2022/03/04 08:05:24;;;;;;;32.30;12.55;;;;;;;-0.37;73.03;98930.31;5051361;28;20067;-60
2022/03/04 08:08:09;;;;;;;33.33;12.82;;;;;;;0.11;71.53;98937.00;5046965;28;20404;-60
2022/03/04 08:10:55;;;;;;;36.40;13.20;;;;;;;-0.33;72.14;98933.69;5054042;28;20064;-60
2022/03/04 08:13:41;;;;;;;33.00;12.15;;;;;;;-0.02;71.99;98936.41;5051864;28;20052;-62
2022/03/04 08:16:29;;;;;;;37.08;13.98;;;;;;;0.47;69.59;98930.19;5054878;28;20524;-55
2022/03/04 08:19:15;;;;;;;38.55;13.60;;;;;;;0.61;68.52;98933.25;5052472;28;20044;-59
2022/03/04 08:22:00;;;;;;;34.30;12.82;;;;;;;0.65;68.81;98940.91;5051379;28;20056;-59
2022/03/04 08:24:46;;;;;;;27.55;11.77;;;;;;;0.73;68.61;98934.66;5051107;28;20060;-58
2022/03/04 08:27:36;;;;;;;33.58;12.65;;;;;;;1.40;65.59;98939.81;5052369;28;20052;-57
2022/03/04 08:30:23;;;;;;;30.20;12.68;;;;;;;1.36;65.60;98933.03;5042998;28;20060;-57
2022/03/04 08:33:09;;;;;;;39.30;14.00;;;;;;;1.43;65.80;98936.28;5052333;28;20056;-58
2022/03/04 08:35:55;;;;;;;34.53;13.45;;;;;;;0.54;68.46;98956.66;5052448;28;20056;-57
2022/03/04 08:38:41;;;;;;;37.90;14.25;;;;;;;1.37;66.85;98944.22;5057738;28;20534;-60
2022/03/04 08:41:26;;;;;;;32.33;12.88;;;;;;;2.33;66.18;98940.53;5055163;28;20060;-61
2022/03/04 08:44:12;;;;;;;31.13;12.82;;;;;;;1.08;66.59;98941.53;5056744;28;20083;-60
2022/03/04 08:46:58;;;;;;;40.28;15.98;;;;;;;1.47;65.29;98941.31;5055369;28;20496;-61
2022/03/04 08:49:44;;;;;;;35.50;12.98;;;;;;;1.57;66.69;98944.50;5066515;28;20051;-61
2022/03/04 08:52:30;;;;;;;33.70;12.43;;;;;;;1.93;63.84;98946.03;5056871;28;20056;-60
2022/03/04 08:55:15;;;;;;;31.77;12.98;;;;;;;2.12;62.42;98942.91;5055984;28;20068;-62
2022/03/04 08:58:01;;;;;;;29.40;13.13;;;;;;;1.89;63.18;98941.88;5056608;28;20076;-60
2022/03/04 09:00:46;;;;;;;29.70;13.23;;;;;;;1.72;63.51;98950.97;5056296;28;20068;-60
2022/03/04 09:03:32;;;;;;;34.85;13.10;;;;;;;2.53;60.93;98949.41;5056747;28;20060;-60
2022/03/04 09:06:18;;;;;;;29.20;12.85;;;;;;;2.99;60.39;98952.19;5056618;28;20079;-61
2022/03/04 09:09:04;;;;;;;33.80;15.05;;;;;;;2.49;60.51;98947.78;5057803;28;20534;-59
2022/03/04 09:11:50;;;;;;;32.95;13.05;;;;;;;1.35;64.51;98958.00;5052214;28;20072;-60
2022/03/04 09:14:36;;;;;;;32.58;13.75;;;;;;;1.91;63.21;98963.31;5054927;28;20059;-60
2022/03/04 09:17:22;;;;;;;38.08;15.60;;;;;;;1.43;64.21;98954.38;5055083;28;20052;-60
2022/03/04 09:20:09;;;;;;;30.95;13.20;;;;;;;1.89;62.93;98961.69;5054637;28;20068;-55
2022/03/04 09:22:56;;;;;;;32.90;13.57;;;;;;;2.57;60.54;98969.94;5042019;28;20059;-61
2022/03/04 09:25:42;;;;;;;37.50;13.63;;;;;;;3.23;73.46;98954.84;5058317;28;20056;-58
2022/03/04 09:28:28;;;;;;;36.65;15.00;;;;;;;3.60;57.66;98967.34;5072934;28;20076;-59
2022/03/04 09:31:13;;;;;;;29.23;13.20;;;;;;;3.52;57.84;98965.91;5074431;28;20060;-59
2022/03/04 09:33:59;;;;;;;32.40;14.05;;;;;;;3.70;56.61;98974.72;5067450;28;20068;-59
2022/03/04 09:36:45;;;;;;;31.88;12.95;;;;;;;3.30;57.53;98971.84;5078156;28;20426;-62
2022/03/04 09:39:31;;;;;;;32.15;13.75;;;;;;;3.74;56.09;98972.88;5056073;28;20051;-60
2022/03/04 09:42:18;;;;;;;35.75;13.30;;;;;;;3.70;55.56;98974.72;5067136;28;20056;-61
2022/03/04 09:45:06;;;;;;;30.05;12.75;;;;;;;3.51;56.64;98979.72;5075021;28;20056;-57
2022/03/04 09:47:51;;;;;;;35.55;14.23;;;;;;;4.38;53.34;98973.06;5050288;28;20048;-59
2022/03/04 09:50:38;;;;;;;32.05;12.88;;;;;;;4.39;52.81;98974.72;5074078;28;20059;-61
2022/03/04 09:53:23;;;;;;;33.88;12.63;;;;;;;3.93;53.82;98973.00;5069301;28;20063;-61
2022/03/04 09:56:09;;;;;;;36.03;13.57;;;;;;;4.00;54.00;98978.81;5069788;28;20373;-58
2022/03/04 09:58:55;;;;;;;36.42;14.57;;;;;;;3.24;56.63;98976.38;5071377;28;20076;-59
2022/03/04 10:01:41;;;;;;;36.38;13.35;;;;;;;4.71;53.45;98969.16;5066704;28;20469;-60
2022/03/04 10:04:28;;;;;;;37.88;14.07;;;;;;;5.12;50.51;98970.94;5062130;28;20503;-58
2022/03/04 10:07:16;;;;;;;36.03;13.70;;;;;;;3.70;53.95;98969.53;5054910;28;20523;-60
2022/03/04 10:10:04;;;;;;;37.65;13.38;;;;;;;4.21;57.27;98971.09;5053934;28;20075;-59
2022/03/04 10:12:56;;;;;;;35.67;14.10;;;;;;;3.68;54.11;98967.91;5054684;28;20060;-58
2022/03/04 10:16:03;;;;;;;40.60;15.30;;;;;;;4.23;53.35;98960.69;5052576;28;20048;-58
2022/03/04 10:19:11;;;;;;;32.92;13.02;;;;;;;6.02;51.55;98957.47;5054084;28;20088;-58
2022/03/04 10:22:00;;;;;;;30.92;12.65;;;;;;;7.94;48.17;98952.31;5053325;28;20075;-59
2022/03/04 10:24:45;;;;;;;36.78;13.63;;;;;;;8.66;46.27;98957.06;5039793;28;20056;-57
2022/03/04 10:27:34;;;;;;;34.78;14.57;;;;;;;7.52;44.28;98948.38;5059168;28;20052;-58
2022/03/04 10:30:34;;;;;;;27.40;11.73;;;;;;;8.89;64.88;98947.03;5040153;28;20052;-53
2022/03/04 10:33:28;;;;;;;31.42;12.60;;;;;;;10.50;42.00;98946.88;5074331;28;20067;-60
2022/03/04 10:36:14;;;;;;;34.38;14.38;;;;;;;8.38;40.65;98946.38;5064964;28;20044;-60
2022/03/04 10:39:08;;;;;;;33.90;14.68;;;;;;;7.45;43.49;98943.59;5043004;28;20060;-57
2022/03/04 10:41:54;;;;;;;28.27;12.68;;;;;;;10.05;38.95;98948.78;5045254;28;20071;-61
2022/03/04 10:44:39;;;;;;;27.42;12.57;;;;;;;9.92;37.50;98935.63;5045291;28;20208;-60
2022/03/04 10:47:40;;;;;;;30.33;13.65;;;;;;;10.05;39.52;98925.25;5053999;28;20068;-60
2022/03/04 10:50:38;;;;;;;34.53;13.07;;;;;;;8.58;39.06;98928.78;5064131;28;20049;-59
2022/03/04 10:53:27;;;;;;;34.38;14.18;;;;;;;7.94;39.87;98934.03;5074288;28;20475;-59
2022/03/04 10:56:13;;;;;;;29.20;12.68;;;;;;;9.48;38.42;98937.47;5072830;28;20055;-58
2022/03/04 10:59:06;;;;;;;30.13;13.52;;;;;;;10.74;37.81;98930.50;5071308;28;20056;-59
2022/03/04 11:01:55;;;;;;;36.08;15.43;;;;;;;9.42;38.81;98922.97;5053168;28;20492;-58
2022/03/04 11:04:41;;;;;;;27.58;12.77;;;;;;;10.53;42.44;98930.94;5053576;28;20063;-59
2022/03/04 11:07:27;;;;;;;33.35;14.15;;;;;;;9.58;36.67;98911.59;5053618;28;20223;-58
2022/03/04 11:10:12;;;;;;;30.27;13.95;;;;;;;9.45;38.81;98919.34;5044411;28;20075;-58
2022/03/04 11:12:59;;;;;;;30.70;14.02;;;;;;;8.37;40.67;98920.38;5060122;28;20059;-60
2022/03/04 11:15:47;;;;;;;31.17;15.18;;;;;;;9.03;37.75;98927.06;5053212;28;20516;-64
2022/03/04 11:18:33;;;;;;;30.15;13.68;;;;;;;10.22;40.21;98921.53;5058750;28;20432;-60
2022/03/04 11:21:19;;;;;;;32.20;14.60;;;;;;;10.71;37.26;98932.38;5055879;28;20052;-60
2022/03/04 11:24:06;;;;;;;32.53;14.52;;;;;;;9.26;38.05;98917.00;5056513;28;20072;-57
2022/03/04 11:27:04;;;;;;;33.85;15.48;;;;;;;8.24;38.53;98920.22;5052506;28;20055;-61
2022/03/04 11:29:55;;;;;;;33.53;14.95;;;;;;;6.73;42.37;98922.00;5053341;28;20093;-58
2022/03/04 11:32:41;;;;;;;37.13;14.75;;;;;;;7.39;43.49;98929.13;5069414;28;20055;-59
2022/03/04 11:35:48;;;;;;;32.30;13.38;;;;;;;8.00;44.51;98923.25;5072943;28;20060;-60
2022/03/04 11:39:13;;;;;;;27.25;13.48;;;;;;;6.79;45.16;98926.06;5072866;28;20075;-60
2022/03/04 11:42:06;;;;;;;30.73;13.75;;;;;;;6.72;44.15;98915.13;5067207;28;20162;-59
2022/03/04 11:44:57;;;;;;;31.90;14.43;;;;;;;5.74;43.98;98915.41;5043084;28;20044;-60
2022/03/04 11:47:45;;;;;;;29.75;13.48;;;;;;;4.74;46.16;98914.53;5052337;28;20055;-61
2022/03/04 11:50:36;;;;;;;32.75;13.57;;;;;;;5.22;45.64;98908.19;5052666;28;20060;-63
2022/03/04 11:53:23;;;;;;;31.42;13.40;;;;;;;4.16;47.94;98905.63;5052630;28;20060;-59
2022/03/04 11:56:14;;;;;;;32.10;13.68;;;;;;;5.55;45.12;98905.81;5054674;28;20111;-59
2022/03/04 11:59:07;;;;;;;30.05;12.35;;;;;;;6.76;42.66;98902.78;5069210;28;20051;-59
2022/03/04 12:01:57;;;;;;;33.15;13.55;;;;;;;7.23;42.26;98905.63;5071631;28;20059;-59
2022/03/04 12:04:43;;;;;;;40.45;15.85;;;;;;;7.07;41.17;98909.03;5049657;28;20393;-60
2022/03/04 12:07:40;;;;;;;34.60;13.80;;;;;;;7.00;40.84;98899.84;5072566;28;20115;-60
2022/03/04 12:10:29;;;;;;;32.97;12.73;;;;;;;6.49;41.87;98911.91;5076923;28;20075;-58
2022/03/04 12:13:26;;;;;;;32.40;12.38;;;;;;;7.08;41.30;98896.84;5070208;28;20514;-60
2022/03/04 12:16:12;;;;;;;28.05;10.80;;;;;;;7.72;40.46;98894.31;5071769;28;20070;-60
2022/03/04 12:18:58;;;;;;;30.10;12.15;;;;;;;7.87;39.41;98903.06;5072107;28;20059;-60
2022/03/04 12:21:47;;;;;;;32.13;13.20;;;;;;;6.68;42.02;98908.38;5070933;28;20060;-60
2022/03/04 12:24:35;;;;;;;24.63;11.38;;;;;;;8.04;40.88;98914.34;5071923;28;20063;-60
2022/03/04 12:27:35;;;;;;;26.30;11.80;;;;;;;6.57;41.92;98910.66;5072094;28;20483;-59
2022/03/04 12:30:22;;;;;;;29.15;11.45;;;;;;;5.63;43.99;98909.84;5070792;28;20060;-59
2022/03/04 12:33:10;;;;;;;28.98;12.23;;;;;;;4.69;46.24;98908.66;5091529;28;20060;-63
2022/03/04 12:35:57;;;;;;;28.58;12.52;;;;;;;5.00;46.32;98906.50;5070273;28;20408;-60
2022/03/04 12:38:58;;;;;;;25.33;11.18;;;;;;;6.19;44.29;98906.41;5050705;28;20095;-59
2022/03/04 12:41:44;;;;;;;25.45;11.13;;;;;;;8.23;39.43;98903.72;5052537;28;20056;-61
2022/03/04 12:44:29;;;;;;;28.88;12.27;;;;;;;5.89;42.95;98907.78;5053674;28;20511;-61
2022/03/04 12:47:15;;;;;;;26.58;11.93;;;;;;;5.34;44.20;98901.63;5050977;28;20056;-58
2022/03/04 12:50:05;;;;;;;29.10;13.15;;;;;;;5.66;44.12;98902.72;5050717;28;20060;-62